sensor_id;sensor_type;location;lat;lon;timestamp;P1;durP1;ratioP1;P2;durP2;ratioP2
67344;SDS011;54230;52.402;6.276;2022-08-14T00:00:00;17.2;;;8.9;;
67344;SDS011;54230;52.402;6.276;2022-08-14T00:05:00;16.6;;;8.6;;
67344;SDS011;54230;52.402;6.276;2022-08-14T00:10:00;12.6;;;7.9;;
67344;SDS011;54230;52.402;6.276;2022-08-14T00:15:00;12.4;;;8.6;;
67344;SDS011;54230;52.402;6.276;2022-08-14T00:20:00;12.5;;;8.4;;
67344;SDS011;54230;52.402;6.276;2022-08-14T00:25:00;14.7;;;8.5;;
67344;SDS011;54230;52.402;6.276;2022-08-14T00:30:00;12.8;;;8.7;;
67344;SDS011;54230;52.402;6.276;2022-08-14T00:35:00;13.2;;;8.5;;
67344;SDS011;54230;52.402;6.276;2022-08-14T00:40:00;11.5;;;8.4;;
67344;SDS011;54230;52.402;6.276;2022-08-14T00:45:00;12.6;;;8.6;;
67344;SDS011;54230;52.402;6.276;2022-08-14T00:50:00;12.0;;;8.6;;
67344;SDS011;54230;52.402;6.276;2022-08-14T00:55:00;14.0;;;9.0;;
67344;SDS011;54230;52.402;6.276;2022-08-14T01:00:00;12.8;;;9.1;;
67344;SDS011;54230;52.402;6.276;2022-08-14T01:05:00;13.6;;;9.1;;
67344;SDS011;54230;52.402;6.276;2022-08-14T01:10:00;12.4;;;8.7;;
67344;SDS011;54230;52.402;6.276;2022-08-14T01:15:00;12.8;;;8.7;;
67344;SDS011;54230;52.402;6.276;2022-08-14T01:20:00;15.2;;;8.9;;
67344;SDS011;54230;52.402;6.276;2022-08-14T01:25:00;12.7;;;8.4;;
67344;SDS011;54230;52.402;6.276;2022-08-14T01:30:00;14.7;;;8.6;;
67344;SDS011;54230;52.402;6.276;2022-08-14T01:35:00;14.1;;;9.0;;
67344;SDS011;54230;52.402;6.276;2022-08-14T01:40:00;13.7;;;9.0;;
67344;SDS011;54230;52.402;6.276;2022-08-14T01:45:00;14.3;;;9.4;;
67344;SDS011;54230;52.402;6.276;2022-08-14T01:50:00;14.3;;;9.6;;
67344;SDS011;54230;52.402;6.276;2022-08-14T01:55:00;14.3;;;10.0;;
67344;SDS011;54230;52.402;6.276;2022-08-14T02:00:00;13.2;;;9.7;;
67344;SDS011;54230;52.402;6.276;2022-08-14T02:05:00;14.5;;;10.1;;
67344;SDS011;54230;52.402;6.276;2022-08-14T02:10:00;15.7;;;10.2;;
67344;SDS011;54230;52.402;6.276;2022-08-14T02:15:00;14.3;;;10.5;;
67344;SDS011;54230;52.402;6.276;2022-08-14T02:20:00;14.4;;;10.4;;
67344;SDS011;54230;52.402;6.276;2022-08-14T02:25:00;13.9;;;10.2;;
67344;SDS011;54230;52.402;6.276;2022-08-14T02:30:00;14.5;;;10.6;;
67344;SDS011;54230;52.402;6.276;2022-08-14T02:35:00;14.5;;;10.2;;
67344;SDS011;54230;52.402;6.276;2022-08-14T02:40:00;14.6;;;10.2;;
67344;SDS011;54230;52.402;6.276;2022-08-14T02:45:00;17.2;;;11.0;;
67344;SDS011;54230;52.402;6.276;2022-08-14T02:50:00;15.7;;;10.5;;
67344;SDS011;54230;52.402;6.276;2022-08-14T02:55:00;14.8;;;10.2;;
67344;SDS011;54230;52.402;6.276;2022-08-14T03:00:00;14.0;;;10.4;;
67344;SDS011;54230;52.402;6.276;2022-08-14T03:05:00;16.6;;;10.9;;
67344;SDS011;54230;52.402;6.276;2022-08-14T03:10:00;17.5;;;11.3;;
67344;SDS011;54230;52.402;6.276;2022-08-14T03:15:01;13.8;;;10.4;;
67344;SDS011;54230;52.402;6.276;2022-08-14T03:20:00;14.2;;;10.5;;
67344;SDS011;54230;52.402;6.276;2022-08-14T03:25:00;14.4;;;10.2;;
67344;SDS011;54230;52.402;6.276;2022-08-14T03:30:00;14.9;;;10.9;;
67344;SDS011;54230;52.402;6.276;2022-08-14T03:35:00;15.5;;;10.7;;
67344;SDS011;54230;52.402;6.276;2022-08-14T03:40:00;16.3;;;11.3;;
67344;SDS011;54230;52.402;6.276;2022-08-14T03:45:00;15.9;;;10.8;;
67344;SDS011;54230;52.402;6.276;2022-08-14T03:50:00;14.9;;;10.5;;
67344;SDS011;54230;52.402;6.276;2022-08-14T03:55:00;14.6;;;10.6;;
67344;SDS011;54230;52.402;6.276;2022-08-14T04:00:00;14.6;;;11.2;;
67344;SDS011;54230;52.402;6.276;2022-08-14T04:05:00;16.2;;;11.0;;
67344;SDS011;54230;52.402;6.276;2022-08-14T04:10:00;16.8;;;11.2;;
67344;SDS011;54230;52.402;6.276;2022-08-14T04:15:00;15.6;;;11.2;;
67344;SDS011;54230;52.402;6.276;2022-08-14T04:20:00;15.4;;;11.4;;
67344;SDS011;54230;52.402;6.276;2022-08-14T04:25:00;18.3;;;11.4;;
67344;SDS011;54230;52.402;6.276;2022-08-14T04:30:00;16.9;;;11.4;;
67344;SDS011;54230;52.402;6.276;2022-08-14T04:35:00;15.0;;;11.1;;
67344;SDS011;54230;52.402;6.276;2022-08-14T04:40:00;17.4;;;11.6;;
67344;SDS011;54230;52.402;6.276;2022-08-14T04:45:00;15.2;;;11.0;;
67344;SDS011;54230;52.402;6.276;2022-08-14T04:50:00;15.7;;;11.6;;
67344;SDS011;54230;52.402;6.276;2022-08-14T04:55:00;16.1;;;11.4;;
67344;SDS011;54230;52.402;6.276;2022-08-14T05:00:00;16.2;;;11.1;;
67344;SDS011;54230;52.402;6.276;2022-08-14T05:05:00;15.3;;;11.2;;
67344;SDS011;54230;52.402;6.276;2022-08-14T05:10:00;15.3;;;11.2;;
67344;SDS011;54230;52.402;6.276;2022-08-14T05:15:00;14.9;;;11.3;;
67344;SDS011;54230;52.402;6.276;2022-08-14T05:20:00;16.0;;;11.3;;
67344;SDS011;54230;52.402;6.276;2022-08-14T05:25:00;14.8;;;10.9;;
67344;SDS011;54230;52.402;6.276;2022-08-14T05:30:02;14.1;;;10.3;;
67344;SDS011;54230;52.402;6.276;2022-08-14T05:35:00;15.9;;;10.1;;
67344;SDS011;54230;52.402;6.276;2022-08-14T05:40:00;14.8;;;10.7;;
67344;SDS011;54230;52.402;6.276;2022-08-14T05:45:00;15.5;;;10.6;;
67344;SDS011;54230;52.402;6.276;2022-08-14T05:50:00;14.2;;;10.3;;
67344;SDS011;54230;52.402;6.276;2022-08-14T05:55:00;14.9;;;10.2;;
67344;SDS011;54230;52.402;6.276;2022-08-14T06:00:00;13.9;;;9.6;;
67344;SDS011;54230;52.402;6.276;2022-08-14T06:05:00;13.8;;;9.5;;
67344;SDS011;54230;52.402;6.276;2022-08-14T06:10:00;14.4;;;10.3;;
67344;SDS011;54230;52.402;6.276;2022-08-14T06:15:00;13.4;;;9.9;;
67344;SDS011;54230;52.402;6.276;2022-08-14T06:20:00;14.2;;;9.9;;
67344;SDS011;54230;52.402;6.276;2022-08-14T06:25:00;13.4;;;9.1;;
67344;SDS011;54230;52.402;6.276;2022-08-14T06:30:00;12.7;;;9.0;;
67344;SDS011;54230;52.402;6.276;2022-08-14T06:35:00;13.0;;;9.4;;
67344;SDS011;54230;52.402;6.276;2022-08-14T06:40:00;13.6;;;9.2;;
67344;SDS011;54230;52.402;6.276;2022-08-14T06:45:00;13.2;;;9.1;;
67344;SDS011;54230;52.402;6.276;2022-08-14T06:50:00;13.4;;;8.8;;
67344;SDS011;54230;52.402;6.276;2022-08-14T06:55:00;13.5;;;8.9;;
67344;SDS011;54230;52.402;6.276;2022-08-14T07:00:00;11.0;;;8.5;;
67344;SDS011;54230;52.402;6.276;2022-08-14T07:05:00;12.2;;;8.7;;
67344;SDS011;54230;52.402;6.276;2022-08-14T07:10:00;11.8;;;8.2;;
67344;SDS011;54230;52.402;6.276;2022-08-14T07:15:00;11.4;;;8.7;;
67344;SDS011;54230;52.402;6.276;2022-08-14T07:20:00;11.0;;;8.1;;
67344;SDS011;54230;52.402;6.276;2022-08-14T07:25:00;10.8;;;7.8;;
67344;SDS011;54230;52.402;6.276;2022-08-14T07:30:01;12.0;;;8.3;;
67344;SDS011;54230;52.402;6.276;2022-08-14T07:35:00;12.7;;;7.9;;
67344;SDS011;54230;52.402;6.276;2022-08-14T07:40:00;11.5;;;8.0;;
67344;SDS011;54230;52.402;6.276;2022-08-14T07:45:00;10.9;;;7.8;;
67344;SDS011;54230;52.402;6.276;2022-08-14T07:50:00;12.9;;;7.9;;
67344;SDS011;54230;52.402;6.276;2022-08-14T07:55:00;11.1;;;7.6;;
67344;SDS011;54230;52.402;6.276;2022-08-14T08:00:00;11.0;;;8.0;;
67344;SDS011;54230;52.402;6.276;2022-08-14T08:05:00;10.5;;;8.0;;
67344;SDS011;54230;52.402;6.276;2022-08-14T08:10:03;10.3;;;7.7;;
67344;SDS011;54230;52.402;6.276;2022-08-14T08:15:00;11.2;;;8.2;;
67344;SDS011;54230;52.402;6.276;2022-08-14T08:20:00;12.9;;;7.2;;
67344;SDS011;54230;52.402;6.276;2022-08-14T08:25:00;10.8;;;7.8;;
67344;SDS011;54230;52.402;6.276;2022-08-14T08:30:02;11.1;;;7.4;;
67344;SDS011;54230;52.402;6.276;2022-08-14T08:35:00;10.3;;;7.5;;
67344;SDS011;54230;52.402;6.276;2022-08-14T08:40:00;9.2;;;7.2;;
67344;SDS011;54230;52.402;6.276;2022-08-14T08:45:00;9.4;;;7.5;;
67344;SDS011;54230;52.402;6.276;2022-08-14T08:50:00;12.0;;;7.6;;
67344;SDS011;54230;52.402;6.276;2022-08-14T08:55:00;11.9;;;7.1;;
67344;SDS011;54230;52.402;6.276;2022-08-14T09:00:00;12.2;;;7.1;;
67344;SDS011;54230;52.402;6.276;2022-08-14T09:05:00;10.9;;;7.1;;
67344;SDS011;54230;52.402;6.276;2022-08-14T09:10:00;8.5;;;6.9;;
67344;SDS011;54230;52.402;6.276;2022-08-14T09:15:00;10.0;;;7.0;;
67344;SDS011;54230;52.402;6.276;2022-08-14T09:20:00;9.0;;;7.0;;
67344;SDS011;54230;52.402;6.276;2022-08-14T09:25:00;8.2;;;6.2;;
67344;SDS011;54230;52.402;6.276;2022-08-14T09:30:00;9.7;;;6.7;;
67344;SDS011;54230;52.402;6.276;2022-08-14T09:35:03;10.7;;;6.3;;
67344;SDS011;54230;52.402;6.276;2022-08-14T09:40:02;8.5;;;6.1;;
67344;SDS011;54230;52.402;6.276;2022-08-14T09:45:10;9.2;;;6.2;;
67344;SDS011;54230;52.402;6.276;2022-08-14T09:50:00;10.1;;;5.9;;
67344;SDS011;54230;52.402;6.276;2022-08-14T09:55:00;7.9;;;6.1;;
67344;SDS011;54230;52.402;6.276;2022-08-14T10:00:08;8.9;;;5.9;;
67344;SDS011;54230;52.402;6.276;2022-08-14T10:05:01;8.3;;;5.7;;
67344;SDS011;54230;52.402;6.276;2022-08-14T10:10:00;8.1;;;6.0;;
67344;SDS011;54230;52.402;6.276;2022-08-14T10:15:00;8.7;;;6.3;;
67344;SDS011;54230;52.402;6.276;2022-08-14T10:20:00;7.9;;;5.7;;
67344;SDS011;54230;52.402;6.276;2022-08-14T10:25:08;8.4;;;5.6;;
67344;SDS011;54230;52.402;6.276;2022-08-14T10:30:00;8.3;;;5.7;;
67344;SDS011;54230;52.402;6.276;2022-08-14T10:35:04;8.5;;;5.6;;
67344;SDS011;54230;52.402;6.276;2022-08-14T10:40:00;7.4;;;5.7;;
67344;SDS011;54230;52.402;6.276;2022-08-14T10:45:00;7.0;;;5.5;;
67344;SDS011;54230;52.402;6.276;2022-08-14T10:50:00;8.0;;;5.7;;
67344;SDS011;54230;52.402;6.276;2022-08-14T10:55:05;8.5;;;5.7;;
67344;SDS011;54230;52.402;6.276;2022-08-14T11:00:00;8.2;;;5.6;;
67344;SDS011;54230;52.402;6.276;2022-08-14T11:05:01;9.2;;;5.5;;
67344;SDS011;54230;52.402;6.276;2022-08-14T11:10:01;9.1;;;5.4;;
67344;SDS011;54230;52.402;6.276;2022-08-14T11:15:00;8.7;;;5.2;;
67344;SDS011;54230;52.402;6.276;2022-08-14T11:20:02;7.9;;;5.3;;
67344;SDS011;54230;52.402;6.276;2022-08-14T11:25:01;7.5;;;5.1;;
67344;SDS011;54230;52.402;6.276;2022-08-14T11:30:00;8.2;;;5.1;;
67344;SDS011;54230;52.402;6.276;2022-08-14T11:35:00;7.0;;;5.1;;
67344;SDS011;54230;52.402;6.276;2022-08-14T11:40:00;8.6;;;5.3;;
67344;SDS011;54230;52.402;6.276;2022-08-14T11:45:02;7.0;;;5.1;;
67344;SDS011;54230;52.402;6.276;2022-08-14T11:50:00;6.7;;;4.9;;
67344;SDS011;54230;52.402;6.276;2022-08-14T11:55:00;6.8;;;4.9;;
67344;SDS011;54230;52.402;6.276;2022-08-14T12:00:00;7.7;;;5.1;;
67344;SDS011;54230;52.402;6.276;2022-08-14T12:05:00;6.2;;;4.9;;
67344;SDS011;54230;52.402;6.276;2022-08-14T12:10:00;7.1;;;5.1;;
67344;SDS011;54230;52.402;6.276;2022-08-14T12:15:00;7.4;;;5.2;;
67344;SDS011;54230;52.402;6.276;2022-08-14T12:20:04;7.1;;;5.2;;
67344;SDS011;54230;52.402;6.276;2022-08-14T12:25:00;6.8;;;4.9;;
67344;SDS011;54230;52.402;6.276;2022-08-14T12:30:00;6.5;;;4.8;;
67344;SDS011;54230;52.402;6.276;2022-08-14T12:35:00;8.4;;;5.1;;
67344;SDS011;54230;52.402;6.276;2022-08-14T12:40:08;7.8;;;4.8;;
67344;SDS011;54230;52.402;6.276;2022-08-14T12:45:00;5.8;;;4.5;;
67344;SDS011;54230;52.402;6.276;2022-08-14T12:50:00;7.7;;;4.8;;
67344;SDS011;54230;52.402;6.276;2022-08-14T12:55:00;6.9;;;4.5;;
67344;SDS011;54230;52.402;6.276;2022-08-14T13:00:09;6.9;;;4.6;;
67344;SDS011;54230;52.402;6.276;2022-08-14T13:05:00;6.4;;;4.7;;
67344;SDS011;54230;52.402;6.276;2022-08-14T13:10:00;7.9;;;4.4;;
67344;SDS011;54230;52.402;6.276;2022-08-14T13:15:00;6.1;;;4.6;;
67344;SDS011;54230;52.402;6.276;2022-08-14T13:20:00;5.4;;;4.4;;
67344;SDS011;54230;52.402;6.276;2022-08-14T13:25:00;8.1;;;4.7;;
67344;SDS011;54230;52.402;6.276;2022-08-14T13:30:00;6.4;;;4.8;;
67344;SDS011;54230;52.402;6.276;2022-08-14T13:35:00;7.0;;;4.7;;
67344;SDS011;54230;52.402;6.276;2022-08-14T13:40:00;7.1;;;4.9;;
67344;SDS011;54230;52.402;6.276;2022-08-14T13:45:00;6.5;;;4.5;;
67344;SDS011;54230;52.402;6.276;2022-08-14T13:50:00;6.2;;;4.5;;
67344;SDS011;54230;52.402;6.276;2022-08-14T13:55:00;6.3;;;4.7;;
67344;SDS011;54230;52.402;6.276;2022-08-14T14:00:00;6.4;;;4.6;;
67344;SDS011;54230;52.402;6.276;2022-08-14T14:05:00;5.4;;;4.6;;
67344;SDS011;54230;52.402;6.276;2022-08-14T14:10:02;6.5;;;4.4;;
67344;SDS011;54230;52.402;6.276;2022-08-14T14:15:00;5.6;;;4.1;;
67344;SDS011;54230;52.402;6.276;2022-08-14T14:20:00;5.9;;;4.3;;
67344;SDS011;54230;52.402;6.276;2022-08-14T14:25:00;5.6;;;4.0;;
67344;SDS011;54230;52.402;6.276;2022-08-14T14:30:00;5.1;;;4.0;;
67344;SDS011;54230;52.402;6.276;2022-08-14T14:35:00;6.5;;;4.1;;
67344;SDS011;54230;52.402;6.276;2022-08-14T14:40:00;5.0;;;4.1;;
67344;SDS011;54230;52.402;6.276;2022-08-14T14:45:02;6.8;;;4.4;;
67344;SDS011;54230;52.402;6.276;2022-08-14T14:50:00;5.7;;;4.1;;
67344;SDS011;54230;52.402;6.276;2022-08-14T14:55:00;6.9;;;4.1;;
67344;SDS011;54230;52.402;6.276;2022-08-14T15:00:00;5.8;;;3.9;;
67344;SDS011;54230;52.402;6.276;2022-08-14T15:05:00;6.2;;;3.8;;
67344;SDS011;54230;52.402;6.276;2022-08-14T15:10:00;5.7;;;4.1;;
67344;SDS011;54230;52.402;6.276;2022-08-14T15:15:00;5.7;;;4.0;;
67344;SDS011;54230;52.402;6.276;2022-08-14T15:20:00;5.4;;;4.1;;
67344;SDS011;54230;52.402;6.276;2022-08-14T15:25:00;5.3;;;4.2;;
67344;SDS011;54230;52.402;6.276;2022-08-14T15:30:00;7.3;;;4.4;;
67344;SDS011;54230;52.402;6.276;2022-08-14T15:35:00;6.5;;;4.3;;
67344;SDS011;54230;52.402;6.276;2022-08-14T15:40:00;5.1;;;3.9;;
67344;SDS011;54230;52.402;6.276;2022-08-14T15:45:00;5.6;;;4.2;;
67344;SDS011;54230;52.402;6.276;2022-08-14T15:50:00;6.2;;;4.0;;
67344;SDS011;54230;52.402;6.276;2022-08-14T15:55:00;4.3;;;3.6;;
67344;SDS011;54230;52.402;6.276;2022-08-14T16:00:00;4.7;;;3.8;;
67344;SDS011;54230;52.402;6.276;2022-08-14T16:05:00;4.7;;;3.8;;
67344;SDS011;54230;52.402;6.276;2022-08-14T16:10:00;5.2;;;3.8;;
67344;SDS011;54230;52.402;6.276;2022-08-14T16:15:00;5.2;;;3.8;;
67344;SDS011;54230;52.402;6.276;2022-08-14T16:20:00;5.2;;;3.7;;
67344;SDS011;54230;52.402;6.276;2022-08-14T16:25:00;5.5;;;3.9;;
67344;SDS011;54230;52.402;6.276;2022-08-14T16:30:00;5.3;;;4.2;;
67344;SDS011;54230;52.402;6.276;2022-08-14T16:35:00;5.6;;;4.0;;
67344;SDS011;54230;52.402;6.276;2022-08-14T16:40:00;6.0;;;4.1;;
67344;SDS011;54230;52.402;6.276;2022-08-14T16:45:00;5.8;;;4.0;;
67344;SDS011;54230;52.402;6.276;2022-08-14T16:50:00;6.0;;;4.0;;
67344;SDS011;54230;52.402;6.276;2022-08-14T16:55:00;4.8;;;3.9;;
67344;SDS011;54230;52.402;6.276;2022-08-14T17:00:00;5.3;;;4.0;;
67344;SDS011;54230;52.402;6.276;2022-08-14T17:10:00;5.4;;;4.0;;
67344;SDS011;54230;52.402;6.276;2022-08-14T17:15:01;4.7;;;3.8;;
67344;SDS011;54230;52.402;6.276;2022-08-14T17:20:00;6.8;;;3.9;;
67344;SDS011;54230;52.402;6.276;2022-08-14T17:25:00;8.0;;;4.2;;
67344;SDS011;54230;52.402;6.276;2022-08-14T17:30:00;5.9;;;3.8;;
67344;SDS011;54230;52.402;6.276;2022-08-14T17:35:00;6.1;;;4.2;;
67344;SDS011;54230;52.402;6.276;2022-08-14T17:40:02;7.2;;;4.1;;
67344;SDS011;54230;52.402;6.276;2022-08-14T17:45:00;6.6;;;4.4;;
67344;SDS011;54230;52.402;6.276;2022-08-14T17:50:00;5.6;;;4.3;;
67344;SDS011;54230;52.402;6.276;2022-08-14T17:55:00;6.6;;;4.4;;
67344;SDS011;54230;52.402;6.276;2022-08-14T18:00:00;6.6;;;4.3;;
67344;SDS011;54230;52.402;6.276;2022-08-14T18:05:00;7.7;;;4.7;;
67344;SDS011;54230;52.402;6.276;2022-08-14T18:10:00;7.5;;;4.9;;
67344;SDS011;54230;52.402;6.276;2022-08-14T18:15:02;8.6;;;4.3;;
67344;SDS011;54230;52.402;6.276;2022-08-14T18:20:00;9.4;;;4.7;;
67344;SDS011;54230;52.402;6.276;2022-08-14T18:25:00;11.5;;;5.0;;
67344;SDS011;54230;52.402;6.276;2022-08-14T18:30:00;8.5;;;4.7;;
67344;SDS011;54230;52.402;6.276;2022-08-14T18:35:00;9.3;;;5.1;;
67344;SDS011;54230;52.402;6.276;2022-08-14T18:45:04;8.4;;;4.9;;
67344;SDS011;54230;52.402;6.276;2022-08-14T18:50:03;8.2;;;5.3;;
67344;SDS011;54230;52.402;6.276;2022-08-14T18:55:02;11.3;;;5.3;;
67344;SDS011;54230;52.402;6.276;2022-08-14T19:00:00;12.5;;;5.2;;
67344;SDS011;54230;52.402;6.276;2022-08-14T19:05:00;12.9;;;5.4;;
67344;SDS011;54230;52.402;6.276;2022-08-14T19:10:00;13.3;;;5.5;;
67344;SDS011;54230;52.402;6.276;2022-08-14T19:15:05;9.7;;;5.4;;
67344;SDS011;54230;52.402;6.276;2022-08-14T19:20:03;7.6;;;5.1;;
67344;SDS011;54230;52.402;6.276;2022-08-14T19:25:00;8.7;;;5.2;;
67344;SDS011;54230;52.402;6.276;2022-08-14T19:35:00;10.2;;;5.5;;
67344;SDS011;54230;52.402;6.276;2022-08-14T19:40:00;8.5;;;5.6;;
67344;SDS011;54230;52.402;6.276;2022-08-14T19:45:00;7.4;;;5.9;;
67344;SDS011;54230;52.402;6.276;2022-08-14T19:50:00;8.1;;;5.6;;
67344;SDS011;54230;52.402;6.276;2022-08-14T19:55:00;10.8;;;5.7;;
67344;SDS011;54230;52.402;6.276;2022-08-14T20:00:01;9.7;;;6.5;;
67344;SDS011;54230;52.402;6.276;2022-08-14T20:05:00;10.2;;;6.8;;
67344;SDS011;54230;52.402;6.276;2022-08-14T20:10:00;9.6;;;6.2;;
67344;SDS011;54230;52.402;6.276;2022-08-14T20:15:01;10.0;;;6.1;;
67344;SDS011;54230;52.402;6.276;2022-08-14T20:20:00;7.8;;;6.1;;
67344;SDS011;54230;52.402;6.276;2022-08-14T20:30:02;10.0;;;6.5;;
67344;SDS011;54230;52.402;6.276;2022-08-14T20:35:00;10.9;;;6.6;;
67344;SDS011;54230;52.402;6.276;2022-08-14T20:45:00;9.7;;;6.7;;
67344;SDS011;54230;52.402;6.276;2022-08-14T21:00:00;11.1;;;6.7;;
67344;SDS011;54230;52.402;6.276;2022-08-14T21:05:00;11.0;;;7.3;;
67344;SDS011;54230;52.402;6.276;2022-08-14T21:10:03;10.5;;;6.8;;
67344;SDS011;54230;52.402;6.276;2022-08-14T21:15:00;11.8;;;7.1;;
67344;SDS011;54230;52.402;6.276;2022-08-14T21:20:00;10.5;;;7.3;;
67344;SDS011;54230;52.402;6.276;2022-08-14T21:25:00;10.7;;;7.0;;
67344;SDS011;54230;52.402;6.276;2022-08-14T21:30:00;11.5;;;7.2;;
67344;SDS011;54230;52.402;6.276;2022-08-14T21:35:00;10.5;;;7.2;;
67344;SDS011;54230;52.402;6.276;2022-08-14T21:40:00;11.8;;;7.7;;
67344;SDS011;54230;52.402;6.276;2022-08-14T21:45:00;11.2;;;7.8;;
67344;SDS011;54230;52.402;6.276;2022-08-14T21:50:00;11.9;;;7.8;;
67344;SDS011;54230;52.402;6.276;2022-08-14T21:55:00;13.4;;;8.0;;
67344;SDS011;54230;52.402;6.276;2022-08-14T22:00:00;12.6;;;7.6;;
67344;SDS011;54230;52.402;6.276;2022-08-14T22:05:00;13.8;;;7.6;;
67344;SDS011;54230;52.402;6.276;2022-08-14T22:10:00;12.0;;;7.5;;
67344;SDS011;54230;52.402;6.276;2022-08-14T22:15:00;11.2;;;7.1;;
67344;SDS011;54230;52.402;6.276;2022-08-14T22:20:00;11.1;;;7.6;;
67344;SDS011;54230;52.402;6.276;2022-08-14T22:25:00;11.5;;;7.7;;
67344;SDS011;54230;52.402;6.276;2022-08-14T22:30:00;11.5;;;8.3;;
67344;SDS011;54230;52.402;6.276;2022-08-14T22:35:00;14.0;;;8.3;;
67344;SDS011;54230;52.402;6.276;2022-08-14T22:40:00;15.5;;;8.2;;
67344;SDS011;54230;52.402;6.276;2022-08-14T22:45:00;13.4;;;8.2;;
67344;SDS011;54230;52.402;6.276;2022-08-14T22:50:00;12.1;;;8.1;;
67344;SDS011;54230;52.402;6.276;2022-08-14T22:55:00;11.7;;;8.1;;
67344;SDS011;54230;52.402;6.276;2022-08-14T23:00:00;12.1;;;8.5;;
67344;SDS011;54230;52.402;6.276;2022-08-14T23:05:00;12.5;;;8.4;;
67344;SDS011;54230;52.402;6.276;2022-08-14T23:10:00;12.1;;;8.8;;
67344;SDS011;54230;52.402;6.276;2022-08-14T23:15:00;12.3;;;8.5;;
67344;SDS011;54230;52.402;6.276;2022-08-14T23:20:00;12.0;;;8.5;;
67344;SDS011;54230;52.402;6.276;2022-08-14T23:25:00;12.4;;;8.4;;
67344;SDS011;54230;52.402;6.276;2022-08-14T23:30:00;13.8;;;8.7;;
67344;SDS011;54230;52.402;6.276;2022-08-14T23:35:00;12.6;;;8.8;;
67344;SDS011;54230;52.402;6.276;2022-08-14T23:40:00;13.8;;;9.0;;
67344;SDS011;54230;52.402;6.276;2022-08-14T23:45:00;12.3;;;9.1;;
67344;SDS011;54230;52.402;6.276;2022-08-14T23:50:00;13.1;;;9.2;;
67344;SDS011;54230;52.402;6.276;2022-08-14T23:55:00;12.6;;;9.2;;
